Time;durP1;ratioP1;P1;durP2;ratioP2;P2;SDS_P1;SDS_P2;PMS_P1;PMS_P2;Temp;Humidity;BMP_temperature;BMP_pressure;BME280_temperature;BME280_humidity;BME280_pressure;Samples;Min_cycle;Max_cycle;Signal;HPM_P1;HPM_P2
2021/07/13 00:01:10;;;;;;;;;4.75;4.00;;;;;23.72;51.03;100604.44;5079231;27;45430;-57
2021/07/13 00:03:35;;;;;;;;;4.00;4.00;;;;;23.72;50.93;100615.03;5079265;27;45248;-57
2021/07/13 00:06:01;;;;;;;;;6.25;4.25;;;;;23.72;51.59;100608.88;5079061;28;45257;-57
2021/07/13 00:08:26;;;;;;;;;4.00;4.00;;;;;23.71;50.97;100610.69;5078944;27;45438;-58
2021/07/13 00:10:52;;;;;;;;;4.75;3.25;;;;;23.65;51.48;100600.53;5078904;27;45346;-58
2021/07/13 00:13:17;;;;;;;;;3.25;2.00;;;;;23.70;51.04;100601.06;5079076;27;45489;-58
2021/07/13 00:15:44;;;;;;;;;5.00;4.00;;;;;23.68;51.31;100602.16;5078723;27;45432;-58
2021/07/13 00:18:11;;;;;;;;;4.00;4.00;;;;;23.68;51.18;100584.47;5078841;27;45623;-58
2021/07/13 00:20:37;;;;;;;;;3.25;3.25;;;;;23.70;51.22;100582.56;5078846;27;45329;-55
2021/07/13 00:23:03;;;;;;;;;3.50;3.50;;;;;23.70;51.24;100579.91;5078197;27;45352;-57
2021/07/13 00:25:30;;;;;;;;;3.25;3.00;;;;;23.70;51.49;100590.47;5078894;27;45492;-57
2021/07/13 00:27:56;;;;;;;;;5.75;5.75;;;;;23.68;51.29;100587.09;5078737;27;45342;-55
2021/07/13 00:30:22;;;;;;;;;4.50;4.50;;;;;23.70;51.28;100590.47;5078790;27;45497;-57
2021/07/13 00:32:49;;;;;;;;;3.75;3.75;;;;;23.70;51.18;100594.94;5078870;27;45358;-56
2021/07/13 00:35:15;;;;;;;;;4.00;4.00;;;;;23.70;51.62;100582.56;5078496;27;46480;-55
2021/07/13 00:37:42;;;;;;;;;5.00;5.00;;;;;23.70;51.49;100585.19;5078588;27;45785;-58
2021/07/13 00:40:09;;;;;;;;;4.50;4.00;;;;;23.68;51.42;100579.16;5078379;27;45268;-51
2021/07/13 00:42:34;;;;;;;;;3.00;3.00;;;;;23.70;51.21;100581.72;5078716;27;45324;-48
2021/07/13 00:45:00;;;;;;;;;5.50;5.50;;;;;23.70;51.44;100571.13;5078627;27;45456;-48
2021/07/13 00:47:27;;;;;;;;;7.25;5.25;;;;;23.70;51.11;100560.56;5078287;28;45297;-50
2021/07/13 00:49:53;;;;;;;;;4.75;4.00;;;;;23.70;51.50;100556.09;5078497;27;45497;-49
2021/07/13 00:52:19;;;;;;;;;4.50;4.50;;;;;23.69;51.22;100543.81;5078502;27;45256;-49
2021/07/13 00:54:47;;;;;;;;;5.00;5.00;;;;;23.70;51.37;100547.31;5078048;27;46350;-50
2021/07/13 00:57:15;;;;;;;;;4.50;4.50;;;;;23.69;51.18;100545.63;5078013;27;45307;-51
2021/07/13 00:59:41;;;;;;;;;4.75;4.75;;;;;23.69;51.36;100551.75;5078276;27;45340;-48
2021/07/13 01:02:09;;;;;;;;;5.50;5.00;;;;;23.69;51.17;100551.75;5078227;27;45627;-49
2021/07/13 01:04:38;;;;;;;;;5.00;5.00;;;;;23.69;51.16;100551.75;5078274;28;45220;-48
2021/07/13 01:07:16;;;;;;;;;7.00;5.75;;;;;23.67;51.52;100552.81;5078284;27;45855;-50
2021/07/13 01:09:57;;;;;;;;;5.25;5.25;;;;;23.69;51.12;100546.47;5078200;27;45267;-58
2021/07/13 01:12:42;;;;;;;;;5.00;5.00;;;;;23.68;51.38;100534.19;5078155;27;45415;-48
2021/07/13 01:15:09;;;;;;;;;5.00;5.00;;;;;23.68;51.30;100523.59;5077918;27;45382;-57
2021/07/13 01:17:43;;;;;;;;;6.00;6.00;;;;;23.68;51.49;100522.78;5078278;27;45846;-51
2021/07/13 01:20:32;;;;;;;;;6.00;6.00;;;;;23.66;51.18;100536.09;5077986;27;45358;-53
2021/07/13 01:23:30;;;;;;;;;5.50;5.50;;;;;23.68;51.17;100543.94;5078168;27;45412;-48
2021/07/13 01:26:13;;;;;;;;;8.75;6.25;;;;;23.67;51.12;100539.59;5006595;27;46333;-48
2021/07/13 01:28:42;;;;;;;;;6.75;5.00;;;;;23.67;51.13;100535.13;5077792;28;45656;-49
2021/07/13 01:31:11;;;;;;;;;5.50;5.50;;;;;23.64;51.05;100527.44;5077714;27;45488;-48
2021/07/13 01:33:41;;;;;;;;;6.75;6.75;;;;;23.66;51.44;100524.69;5078363;28;45624;-50
2021/07/13 01:36:19;;;;;;;;;7.00;7.00;;;;;23.67;51.33;100537.78;5077848;27;46204;-49
2021/07/13 01:38:46;;;;;;;;;4.00;4.00;;;;;23.66;50.95;100541.38;5077612;27;45865;-48
2021/07/13 01:41:17;;;;;;;;;7.25;7.25;;;;;23.66;51.19;100551.13;5077748;27;45225;-48
2021/07/13 01:43:46;;;;;;;;;8.25;6.25;;;;;23.66;51.05;100567.00;5077854;27;45336;-50
2021/07/13 01:46:13;;;;;;;;;7.00;7.00;;;;;23.66;50.73;100559.06;5077418;27;46403;-51
2021/07/13 01:48:40;;;;;;;;;6.25;6.25;;;;;23.66;51.30;100567.00;5077476;27;45201;-48
2021/07/13 01:51:07;;;;;;;;;8.25;7.00;;;;;23.66;51.20;100567.84;5076394;28;45360;-49
2021/07/13 01:53:33;;;;;;;;;6.00;6.00;;;;;23.67;51.03;100566.06;5076834;27;45494;-51
2021/07/13 01:56:01;;;;;;;;;5.00;5.00;;;;;23.65;51.19;100550.28;5077258;27;46928;-50
2021/07/13 01:58:28;;;;;;;;;7.75;6.00;;;;;23.65;50.80;100539.69;5077142;28;45689;-48
2021/07/13 02:00:57;;;;;;;;;6.25;6.25;;;;;23.64;50.74;100540.69;5077551;27;45280;-48
2021/07/13 02:03:27;;;;;;;;;7.00;7.00;;;;;23.66;50.81;100554.59;5077432;28;45475;-48
2021/07/13 02:05:55;;;;;;;;;5.75;5.75;;;;;23.66;51.31;100565.19;5077103;28;46408;-48
2021/07/13 02:08:22;;;;;;;;;6.00;6.00;;;;;23.65;51.01;100560.84;5077094;28;45208;-49
2021/07/13 02:10:48;;;;;;;;;6.50;6.50;;;;;23.65;50.92;100558.22;5077140;27;45381;-51
2021/07/13 02:13:15;;;;;;;;;7.00;7.00;;;;;23.65;51.05;100560.84;5077205;27;45507;-49
2021/07/13 02:15:41;;;;;;;;;5.25;5.25;;;;;23.65;50.67;100562.69;5075540;28;46232;-48
2021/07/13 02:18:06;;;;;;;;;7.00;7.00;;;;;23.61;51.06;100554.94;5077333;28;45275;-48
2021/07/13 02:20:31;;;;;;;;;7.00;6.50;;;;;23.64;50.74;100551.25;5075784;28;45331;-48
2021/07/13 02:22:57;;;;;;;;;6.25;6.25;;;;;23.65;50.82;100546.78;5077146;27;45149;-49
2021/07/13 02:25:22;;;;;;;;;6.75;5.75;;;;;23.64;51.12;100535.38;5076690;27;46229;-50
2021/07/13 02:28:13;;;;;;;;;7.00;6.00;;;;;23.63;50.75;100528.41;5076665;27;45244;-51
2021/07/13 02:30:43;;;;;;;;;6.00;6.00;;;;;23.62;50.57;100538.13;5077209;27;45333;-48
2021/07/13 02:33:19;;;;;;;;;7.25;5.75;;;;;23.63;50.68;100546.91;5077282;27;45314;-49
2021/07/13 02:35:49;;;;;;;;;6.50;6.50;;;;;23.63;50.95;100554.84;5076490;27;46198;-49
2021/07/13 02:38:16;;;;;;;;;6.25;6.25;;;;;23.62;50.97;100558.47;5076486;27;45495;-49
2021/07/13 02:40:42;;;;;;;;;5.75;5.75;;;;;23.62;50.72;100561.94;5076881;27;45396;-51
2021/07/13 02:43:08;;;;;;;;;6.00;5.00;;;;;23.63;50.56;100552.22;5075908;28;45650;-50
2021/07/13 02:45:35;;;;;;;;;5.00;5.00;;;;;23.63;50.66;100549.56;5076519;27;45339;-48
2021/07/13 02:48:02;;;;;;;;;7.75;6.50;;;;;23.58;50.66;100541.97;5076540;27;45236;-48
2021/07/13 02:50:28;;;;;;;;;5.25;4.00;;;;;23.60;50.91;100550.63;5075345;28;45364;-50
2021/07/13 02:52:54;;;;;;;;;6.00;6.00;;;;;23.59;50.80;100546.28;5076698;27;45628;-49
2021/07/13 02:55:21;;;;;;;;;7.00;6.00;;;;;23.61;50.81;100552.31;5076274;27;47206;-49
2021/07/13 02:57:49;;;;;;;;;5.75;5.75;;;;;23.60;50.89;100547.13;5076494;27;46091;-47
2021/07/13 03:00:16;;;;;;;;;7.25;5.75;;;;;23.61;50.94;100544.38;5076533;27;45242;-56
2021/07/13 03:02:44;;;;;;;;;4.25;4.25;;;;;23.61;50.68;100552.31;5076992;27;45600;-55
2021/07/13 03:05:13;;;;;;;;;5.50;4.00;;;;;23.61;50.55;100549.66;5076567;27;46277;-49
2021/07/13 03:07:40;;;;;;;;;5.00;5.00;;;;;23.61;50.89;100551.47;5079643;27;45224;-51
2021/07/13 03:10:06;;;;;;;;;5.00;4.25;;;;;23.62;50.95;100561.09;5080018;27;45336;-48
2021/07/13 03:12:31;;;;;;;;;4.00;4.00;;;;;23.62;50.51;100571.69;5080131;27;45561;-53
2021/07/13 03:14:59;;;;;;;;;4.25;4.25;;;;;23.60;50.42;100568.31;5079750;27;46150;-51
2021/07/13 03:17:26;;;;;;;;;8.00;7.00;;;;;23.60;50.75;100565.66;5078329;28;45738;-51
2021/07/13 03:19:52;;;;;;;;;5.00;5.00;;;;;23.62;50.62;100571.69;5079766;27;45324;-48
2021/07/13 03:22:28;;;;;;;;;4.75;4.75;;;;;23.61;50.78;100559.41;5080180;27;45569;-52
2021/07/13 03:25:00;;;;;;;;;5.00;5.00;;;;;23.60;50.82;100552.44;5079588;27;46042;-50
2021/07/13 03:27:28;;;;;;;;;4.75;4.75;;;;;23.60;50.66;100547.97;5078324;27;45960;-49
2021/07/13 03:29:55;;;;;;;;;4.25;4.25;;;;;23.61;50.92;100543.53;5078338;28;45228;-51
2021/07/13 03:32:22;;;;;;;;;6.00;6.00;;;;;23.58;50.67;100534.03;5079683;27;45634;-49
2021/07/13 03:34:48;;;;;;;;;5.75;5.50;;;;;23.60;50.54;100525.97;5079617;27;45399;-52
2021/07/13 03:37:15;;;;;;;;;4.75;4.75;;;;;23.60;50.84;100520.69;5079380;28;45348;-53
2021/07/13 03:39:41;;;;;;;;;4.50;4.50;;;;;23.60;50.60;100521.50;5079717;27;45428;-50
2021/07/13 03:42:07;;;;;;;;;6.75;6.75;;;;;23.60;50.84;100531.25;5079624;27;45286;-52
2021/07/13 03:44:33;;;;;;;;;4.75;4.75;;;;;23.59;50.65;100527.75;5079159;27;46126;-54
2021/07/13 03:46:59;;;;;;;;;5.50;5.50;;;;;23.60;50.95;100525.97;5079260;27;45239;-49
2021/07/13 03:49:26;;;;;;;;;5.50;5.50;;;;;23.60;50.38;100531.25;5079239;27;45284;-50
2021/07/13 03:51:51;;;;;;;;;5.75;5.00;;;;;23.59;50.46;100534.88;5079503;27;45520;-48
2021/07/13 03:54:18;;;;;;;;;7.25;6.00;;;;;23.58;50.92;100538.47;5079083;27;45454;-49
2021/07/13 03:56:45;;;;;;;;;6.50;6.00;;;;;23.60;50.86;100541.84;5079483;27;45871;-49
2021/07/13 03:59:11;;;;;;;;;5.00;4.25;;;;;23.59;50.90;100545.44;5079554;27;45505;-49
2021/07/13 04:01:36;;;;;;;;;6.50;5.00;;;;;23.58;50.48;100533.19;5079197;27;45624;-48
2021/07/13 04:04:02;;;;;;;;;3.25;3.25;;;;;23.59;50.44;100535.69;5078976;28;45331;-48
2021/07/13 04:06:28;;;;;;;;;5.75;5.75;;;;;23.58;50.63;100541.09;5078911;27;45346;-49
2021/07/13 04:08:55;;;;;;;;;5.00;5.00;;;;;23.60;50.79;100536.56;5077692;28;45240;-49
2021/07/13 04:11:20;;;;;;;;;5.75;5.75;;;;;23.59;50.82;100540.16;5079137;28;45264;-48
2021/07/13 04:13:45;;;;;;;;;7.00;6.00;;;;;23.58;50.77;100543.75;5078662;27;45295;-48
2021/07/13 04:16:11;;;;;;;;;5.00;5.00;;;;;23.59;50.85;100538.34;5079041;28;45368;-48
2021/07/13 04:18:37;;;;;;;;;6.00;5.00;;;;;23.57;50.92;100532.34;5078414;27;45379;-50
2021/07/13 04:21:02;;;;;;;;;6.00;6.00;;;;;23.59;50.49;100534.88;5078968;27;45355;-48
2021/07/13 04:23:28;;;;;;;;;7.00;7.00;;;;;23.59;50.62;100537.50;5078515;27;46291;-49
2021/07/13 04:25:53;;;;;;;;;4.50;4.00;;;;;23.58;50.57;100533.19;5078523;28;45256;-49
2021/07/13 04:28:19;;;;;;;;;6.00;5.50;;;;;23.58;50.98;100533.19;5078700;28;45369;-49
2021/07/13 04:30:45;;;;;;;;;6.00;6.00;;;;;23.58;50.97;100534.03;5079158;27;45326;-50
2021/07/13 04:33:10;;;;;;;;;8.50;6.00;;;;;23.59;50.92;100534.88;5078458;27;45952;-48
2021/07/13 04:35:35;;;;;;;;;6.00;5.00;;;;;23.59;50.54;100545.44;5078477;27;45370;-49
2021/07/13 04:38:01;;;;;;;;;4.00;4.00;;;;;23.59;50.64;100545.44;5078485;27;45330;-48
2021/07/13 04:40:26;;;;;;;;;7.00;5.50;;;;;23.59;50.69;100553.38;5078733;28;45319;-48
2021/07/13 04:42:52;;;;;;;;;5.00;5.00;;;;;23.59;50.63;100545.44;5078332;28;45876;-49
2021/07/13 04:45:17;;;;;;;;;6.25;6.25;;;;;23.59;50.53;100553.38;5078199;27;45675;-48
2021/07/13 04:47:43;;;;;;;;;5.50;5.50;;;;;23.58;50.67;100541.97;5078899;28;45272;-49
2021/07/13 04:50:09;;;;;;;;;6.50;6.50;;;;;23.54;50.66;100537.00;5078612;28;45627;-49
2021/07/13 04:52:34;;;;;;;;;5.00;5.00;;;;;23.58;50.91;100530.53;5078079;27;47216;-54
2021/07/13 04:55:00;;;;;;;;;8.00;8.00;;;;;23.58;50.86;100538.47;5078148;28;45238;-51
2021/07/13 04:57:26;;;;;;;;;8.00;7.50;;;;;23.58;51.11;100530.53;5078286;27;45412;-51
2021/07/13 04:59:52;;;;;;;;;6.50;6.00;;;;;23.57;50.87;100531.47;5078386;27;45414;-48
2021/07/13 05:02:18;;;;;;;;;6.00;6.00;;;;;23.58;50.51;100541.09;5078114;27;45832;-51
2021/07/13 05:04:43;;;;;;;;;7.75;7.75;;;;;23.58;50.55;100535.81;5077079;27;45718;-51
2021/07/13 05:07:09;;;;;;;;;6.50;6.50;;;;;23.58;50.73;100538.47;5078204;27;45631;-49
2021/07/13 05:09:34;;;;;;;;;6.50;6.50;;;;;23.57;50.71;100537.63;5078285;27;45445;-53
2021/07/13 05:11:59;;;;;;;;;7.25;7.00;;;;;23.55;50.74;100539.53;5077664;27;46534;-48
2021/07/13 05:14:25;;;;;;;;;7.00;7.00;;;;;23.57;50.79;100544.72;5077778;28;45464;-56
2021/07/13 05:16:50;;;;;;;;;7.25;7.25;;;;;23.58;50.97;100543.75;5077963;27;45406;-51
2021/07/13 05:19:16;;;;;;;;;7.25;7.00;;;;;23.58;50.91;100549.03;5078458;27;45470;-49
2021/07/13 05:21:44;;;;;;;;;5.50;5.50;;;;;23.58;50.72;100549.03;5077608;27;46272;-52
2021/07/13 05:24:10;;;;;;;;;6.25;5.25;;;;;23.58;50.90;100556.97;5077655;27;45614;-50
2021/07/13 05:26:36;;;;;;;;;7.00;7.00;;;;;23.58;50.34;100567.56;5077826;27;45356;-51
2021/07/13 05:29:06;;;;;;;;;6.50;6.25;;;;;23.56;50.82;100561.53;5076721;27;45604;-52
2021/07/13 05:31:33;;;;;;;;;8.00;8.00;;;;;23.57;50.67;100557.94;5077461;27;45357;-50
2021/07/13 05:33:59;;;;;;;;;6.50;6.00;;;;;23.56;50.84;100559.75;5077652;27;45257;-49
2021/07/13 05:36:25;;;;;;;;;7.00;6.25;;;;;23.56;50.75;100562.41;5076517;28;45336;-50
2021/07/13 05:38:53;;;;;;;;;9.25;9.25;;;;;23.58;50.91;100567.56;5077668;27;45354;-49
2021/07/13 05:41:20;;;;;;;;;7.00;6.00;;;;;23.57;50.86;100581.75;5077692;27;46208;-49
2021/07/13 05:43:45;;;;;;;;;8.00;7.25;;;;;23.58;50.91;100588.72;5077740;27;45410;-50
2021/07/13 05:46:10;;;;;;;;;8.50;7.50;;;;;23.57;51.03;100581.75;5077586;27;45296;-51
2021/07/13 05:48:35;;;;;;;;;7.50;7.00;;;;;23.57;50.66;100584.38;5077359;28;46417;-57
2021/07/13 05:51:01;;;;;;;;;8.75;8.00;;;;;23.56;51.07;100583.56;5077347;28;46252;-50
2021/07/13 05:53:26;;;;;;;;;8.00;8.00;;;;;23.56;50.68;100577.41;5077238;28;45271;-48
2021/07/13 05:55:52;;;;;;;;;7.75;6.00;;;;;23.57;50.94;100584.38;5077546;28;45259;-55
2021/07/13 05:58:20;;;;;;;;;8.25;7.25;;;;;23.57;50.59;100584.38;5077938;27;45223;-55
2021/07/13 06:00:47;;;;;;;;;9.00;9.00;;;;;23.56;50.88;100580.06;5077475;28;47289;-59
2021/07/13 06:03:12;;;;;;;;;6.75;6.75;;;;;23.56;50.75;100583.56;5077236;27;45347;-57
2021/07/13 06:05:38;;;;;;;;;11.00;8.50;;;;;23.58;50.34;100583.44;5077334;27;45262;-56
2021/07/13 06:08:04;;;;;;;;;8.75;8.00;;;;;23.57;50.42;100579.09;5077389;28;45496;-57
2021/07/13 06:10:29;;;;;;;;;9.75;7.25;;;;;23.55;50.94;100573.06;5077023;28;45352;-55
2021/07/13 06:12:55;;;;;;;;;6.75;6.75;;;;;23.57;50.98;100568.50;5075684;28;45458;-49
2021/07/13 06:15:20;;;;;;;;;6.75;6.75;;;;;23.56;50.66;100567.69;5077437;27;45335;-49
2021/07/13 06:17:45;;;;;;;;;8.00;7.00;;;;;23.57;50.71;100568.50;5077339;27;45417;-51
2021/07/13 06:20:12;;;;;;;;;6.75;6.75;;;;;23.56;50.45;100564.19;5076841;27;45295;-53
2021/07/13 06:22:37;;;;;;;;;8.75;7.00;;;;;23.56;50.90;100567.69;5076933;27;45665;-50
2021/07/13 06:25:04;;;;;;;;;9.00;8.00;;;;;23.57;50.68;100581.75;5077031;27;45294;-57
2021/07/13 06:27:29;;;;;;;;;7.50;7.50;;;;;23.55;50.78;100576.56;5077102;27;45249;-52
2021/07/13 06:29:55;;;;;;;;;6.50;6.50;;;;;23.54;50.82;100574.03;5076766;27;46253;-52
2021/07/13 06:32:20;;;;;;;;;7.50;7.50;;;;;23.56;50.75;100577.41;5075701;28;45390;-52
2021/07/13 06:34:45;;;;;;;;;7.00;7.00;;;;;23.56;50.90;100570.34;5076832;28;45359;-55
2021/07/13 06:37:11;;;;;;;;;7.25;6.50;;;;;23.57;50.85;100569.38;5076909;28;45212;-58
2021/07/13 06:39:36;;;;;;;;;9.75;8.50;;;;;23.57;50.84;100571.16;5076024;28;46355;-56
2021/07/13 06:42:02;;;;;;;;;6.00;6.00;;;;;23.56;50.68;100564.19;5075396;28;45363;-53
2021/07/13 06:44:27;;;;;;;;;7.00;7.00;;;;;23.58;50.61;100570.22;5076584;27;45405;-56
2021/07/13 06:46:53;;;;;;;;;7.00;7.00;;;;;23.56;50.92;100562.41;5077001;28;45338;-53
2021/07/13 06:49:18;;;;;;;;;7.50;7.50;;;;;23.58;51.14;100554.34;5076843;27;46432;-54
2021/07/13 06:51:43;;;;;;;;;8.00;7.25;;;;;23.58;50.70;100555.19;5076573;27;45467;-49
2021/07/13 06:54:09;;;;;;;;;7.00;7.00;;;;;23.57;50.67;100545.56;5076471;27;45335;-56
2021/07/13 06:56:34;;;;;;;;;8.25;8.25;;;;;23.57;50.79;100548.22;5076700;28;45424;-49
2021/07/13 06:58:59;;;;;;;;;8.25;7.00;;;;;23.58;50.96;100546.41;5076375;27;46446;-49
2021/07/13 07:01:25;;;;;;;;;10.75;9.50;;;;;23.59;50.95;100545.44;5076072;28;53859;-51
2021/07/13 07:03:50;;;;;;;;;8.00;8.00;;;;;23.59;50.62;100540.16;5075519;27;45384;-50
2021/07/13 07:06:16;;;;;;;;;7.25;7.25;;;;;23.58;50.87;100543.75;5076579;27;45550;-51
2021/07/13 07:08:41;;;;;;;;;9.00;8.75;;;;;23.58;51.18;100541.09;5074902;28;47508;-51
2021/07/13 07:11:06;;;;;;;;;8.00;8.00;;;;;23.58;51.04;100544.63;5076095;28;45330;-49
2021/07/13 07:13:32;;;;;;;;;10.00;9.25;;;;;23.59;51.06;100540.97;5076193;27;45453;-57
2021/07/13 07:15:57;;;;;;;;;9.00;9.00;;;;;23.59;51.12;100543.63;5076001;28;47890;-54
2021/07/13 07:18:22;;;;;;;;;10.25;8.75;;;;;23.59;50.97;100546.28;5076329;28;46422;-57
2021/07/13 07:20:48;;;;;;;;;10.25;9.00;;;;;23.59;51.04;100535.69;5076005;28;45220;-55
2021/07/13 07:23:13;;;;;;;;;11.25;10.75;;;;;23.59;51.38;100529.56;5076240;27;45300;-57
2021/07/13 07:25:38;;;;;;;;;10.00;10.00;;;;;23.59;51.35;100529.56;5076164;27;45201;-55
2021/07/13 07:28:04;;;;;;;;;8.00;6.75;;;;;23.60;51.23;100532.09;5075954;27;45357;-50
2021/07/13 07:30:32;;;;;;;;;12.25;10.25;;;;;23.58;51.29;100541.97;5076042;27;45368;-49
2021/07/13 07:32:58;;;;;;;;;9.00;9.00;;;;;23.60;51.05;100552.44;5076028;27;45430;-55
2021/07/13 07:35:25;;;;;;;;;9.75;8.25;;;;;23.59;50.83;100551.56;5076635;27;45611;-52
2021/07/13 07:37:51;;;;;;;;;9.00;8.00;;;;;23.59;50.93;100556.03;5076105;27;45527;-49
2021/07/13 07:40:18;;;;;;;;;7.75;7.75;;;;;23.60;51.29;100557.72;5075760;27;46023;-57
2021/07/13 07:42:50;;;;;;;;;11.00;10.00;;;;;23.60;51.36;100573.59;5076092;27;45332;-57
2021/07/13 07:45:16;;;;;;;;;11.50;10.25;;;;;23.60;50.99;100573.59;5076183;27;45339;-57
2021/07/13 07:47:41;;;;;;;;;13.00;9.75;;;;;23.61;51.02;100575.28;5075341;27;45472;-56
2021/07/13 07:50:08;;;;;;;;;12.00;11.00;;;;;23.60;51.33;100566.50;5075726;27;45397;-53
2021/07/13 07:52:34;;;;;;;;;11.25;9.25;;;;;23.60;51.02;100563.00;5077182;27;45219;-52
2021/07/13 07:55:00;;;;;;;;;10.25;10.25;;;;;23.60;51.48;100571.78;5079525;27;45269;-52
2021/07/13 07:57:26;;;;;;;;;9.25;8.50;;;;;23.61;51.01;100572.63;5079391;27;45256;-54
2021/07/13 07:59:51;;;;;;;;;11.00;11.00;;;;;23.60;51.30;100574.44;5079157;27;45341;-49
2021/07/13 08:02:16;;;;;;;;;10.75;8.25;;;;;23.60;51.28;100573.59;5079269;28;45481;-48
2021/07/13 08:04:42;;;;;;;;;8.50;8.00;;;;;23.61;51.01;100580.56;5079370;28;45310;-48
2021/07/13 08:07:09;;;;;;;;;12.00;10.25;;;;;23.61;50.92;100580.56;5078958;27;47511;-48
2021/07/13 08:09:34;;;;;;;;;10.75;10.25;;;;;23.62;51.11;100571.69;5078961;27;45375;-51
2021/07/13 08:11:59;;;;;;;;;8.00;8.00;;;;;23.61;51.17;100572.63;5077656;28;45358;-48
2021/07/13 08:14:25;;;;;;;;;13.50;10.50;;;;;23.61;51.15;100575.28;5079596;27;45326;-51
2021/07/13 08:16:52;;;;;;;;;12.25;11.25;;;;;23.61;51.43;100580.56;5078745;27;45441;-48
2021/07/13 08:19:18;;;;;;;;;11.25;10.75;;;;;23.61;51.08;100593.81;5078782;27;45400;-49
2021/07/13 08:21:43;;;;;;;;;8.50;8.50;;;;;23.62;51.39;100591.03;5078800;27;45290;-48
2021/07/13 08:24:10;;;;;;;;;11.50;11.50;;;;;23.59;51.06;100588.59;5079072;27;45553;-50
2021/07/13 08:26:36;;;;;;;;;11.50;11.00;;;;;23.61;51.37;100591.16;5078555;27;46350;-52
2021/07/13 08:29:02;;;;;;;;;11.25;9.50;;;;;23.62;51.39;100592.84;5078560;27;45276;-51
2021/07/13 08:31:27;;;;;;;;;10.25;10.00;;;;;23.61;51.34;100592.00;5079026;27;45343;-49
2021/07/13 08:33:52;;;;;;;;;12.00;11.00;;;;;23.60;51.25;100590.28;5078813;28;45708;-49
2021/07/13 08:36:18;;;;;;;;;11.25;10.50;;;;;23.61;51.21;100588.50;5078357;27;46013;-52
2021/07/13 08:38:43;;;;;;;;;9.00;8.75;;;;;23.61;51.53;100591.16;5078342;27;45337;-52
2021/07/13 08:41:09;;;;;;;;;9.50;9.50;;;;;23.60;51.52;100584.19;5078492;28;45444;-53
2021/07/13 08:43:35;;;;;;;;;10.50;9.25;;;;;23.62;51.17;100592.84;5078595;27;45305;-49
2021/07/13 08:46:01;;;;;;;;;9.25;8.50;;;;;23.61;51.03;100584.06;5076939;28;48477;-49
2021/07/13 08:48:26;;;;;;;;;11.25;11.25;;;;;23.60;51.34;100595.59;5078626;27;45447;-48
2021/07/13 08:50:59;;;;;;;;;11.50;11.00;;;;;23.60;51.16;100592.94;5078335;27;45193;-51
2021/07/13 08:53:25;;;;;;;;;8.00;8.00;;;;;23.61;51.34;100593.81;5078813;27;45438;-48
2021/07/13 08:55:56;;;;;;;;;9.50;9.00;;;;;23.59;51.76;100583.31;5078097;27;45269;-53
2021/07/13 08:58:23;;;;;;;;;11.25;10.50;;;;;23.59;51.52;100579.84;5078206;27;45707;-48
2021/07/13 09:00:49;;;;;;;;;11.75;9.25;;;;;23.60;51.66;100582.34;5078121;27;45457;-53
2021/07/13 09:03:18;;;;;;;;;13.25;10.25;;;;;23.60;51.43;100578.88;5078151;28;45438;-49
2021/07/13 09:05:44;;;;;;;;;11.25;10.00;;;;;23.60;51.47;100581.53;5077888;27;47157;-51
2021/07/13 09:08:11;;;;;;;;;10.00;10.00;;;;;23.58;51.95;100586.94;5077838;27;45222;-52
2021/07/13 09:10:37;;;;;;;;;9.50;9.00;;;;;23.60;51.73;100594.75;5078031;27;45366;-54
2021/07/13 09:13:02;;;;;;;;;11.50;10.00;;;;;23.60;51.41;100594.75;5078148;27;45652;-52
2021/07/13 09:15:27;;;;;;;;;14.50;12.00;;;;;23.60;51.70;100594.75;5078073;27;45374;-51
2021/07/13 09:17:53;;;;;;;;;10.75;10.75;;;;;23.60;51.41;100602.69;5077772;27;45408;-48
2021/07/13 09:20:31;;;;;;;;;8.50;8.50;;;;;23.60;51.67;100605.34;5077838;28;45397;-50
2021/07/13 09:23:00;;;;;;;;;9.00;8.25;;;;;23.59;51.70;100609.78;5078361;27;45242;-58
2021/07/13 09:25:30;;;;;;;;;14.50;11.75;;;;;23.60;51.49;100613.28;5077835;27;46970;-48
2021/07/13 09:28:31;;;;;;;;;12.00;10.00;;;;;23.60;51.86;100611.47;5076609;28;45244;-55
2021/07/13 09:30:58;;;;;;;;;10.25;9.25;;;;;23.60;51.86;100605.34;4995808;28;45489;-55
2021/07/13 09:33:34;;;;;;;;;11.00;9.00;;;;;23.60;51.62;100615.91;5061313;27;45329;-51
2021/07/13 09:36:04;;;;;;;;;10.25;10.25;;;;;23.61;51.81;100614.97;5076730;27;47280;-55
2021/07/13 09:38:32;;;;;;;;;8.50;8.50;;;;;23.60;51.65;100613.28;5077713;27;45397;-48
2021/07/13 09:41:19;;;;;;;;;10.75;10.25;;;;;23.61;51.66;100612.31;5077966;27;45375;-54
2021/07/13 09:43:54;;;;;;;;;10.25;9.00;;;;;23.59;51.84;100609.78;5077724;27;45319;-53
2021/07/13 09:46:31;;;;;;;;;12.00;10.75;;;;;23.59;51.73;100615.06;5077387;27;46689;-48
2021/07/13 09:49:23;;;;;;;;;9.50;9.50;;;;;23.59;51.96;100614.22;5077693;28;45326;-52
2021/07/13 09:52:03;;;;;;;;;7.75;7.75;;;;;23.60;51.74;100623.84;5077237;27;45294;-49
2021/07/13 09:54:44;;;;;;;;;11.25;10.25;;;;;23.59;51.81;100617.69;5078064;27;45312;-48
2021/07/13 09:57:16;;;;;;;;;9.50;9.50;;;;;23.59;51.93;100625.63;5077225;27;45432;-49
2021/07/13 09:59:42;;;;;;;;;11.25;10.50;;;;;23.60;52.10;100632.63;5077199;27;45625;-48
2021/07/13 10:02:10;;;;;;;;;9.75;9.00;;;;;23.58;52.21;100633.69;5077596;27;45440;-49
2021/07/13 10:04:37;;;;;;;;;11.00;11.00;;;;;23.59;52.21;100636.22;5076332;28;45366;-48
2021/07/13 10:07:13;;;;;;;;;10.25;10.25;;;;;23.59;52.24;100638.88;5077372;27;46122;-57
2021/07/13 10:09:53;;;;;;;;;10.25;10.25;;;;;23.59;51.95;100635.41;5076951;27;45639;-58
2021/07/13 10:12:22;;;;;;;;;9.50;8.00;;;;;23.59;52.06;100622.16;5077187;27;45306;-59
2021/07/13 10:14:49;;;;;;;;;10.25;8.25;;;;;23.58;52.51;100623.97;5076629;27;45366;-56
2021/07/13 10:17:16;;;;;;;;;9.00;8.75;;;;;23.60;52.10;100621.22;5075620;28;45416;-59
2021/07/13 10:19:46;;;;;;;;;9.75;7.75;;;;;23.59;51.84;100623.00;5076883;27;45221;-57
2021/07/13 10:22:14;;;;;;;;;10.25;9.25;;;;;23.60;52.55;100631.78;5076797;27;45319;-58
2021/07/13 10:24:42;;;;;;;;;13.25;10.25;;;;;23.60;52.23;100631.78;5077004;27;45230;-48
2021/07/13 10:27:30;;;;;;;;;7.00;7.00;;;;;23.60;52.56;100635.28;5076687;27;46196;-47
2021/07/13 10:30:29;;;;;;;;;10.75;8.50;;;;;23.60;52.53;100634.44;5076729;27;45389;-48
2021/07/13 10:32:55;;;;;;;;;9.00;9.00;;;;;23.59;52.50;100636.22;5070996;27;45390;-48
2021/07/13 10:35:25;;;;;;;;;11.00;11.00;;;;;23.60;52.66;100634.44;5076973;28;45224;-48
2021/07/13 10:37:51;;;;;;;;;8.75;8.50;;;;;23.60;52.53;100637.91;5075280;28;48439;-51
2021/07/13 10:40:26;;;;;;;;;8.50;6.25;;;;;23.60;52.56;100637.09;5076564;27;45703;-57
2021/07/13 10:42:56;;;;;;;;;9.50;7.75;;;;;23.53;52.70;100625.25;5075470;28;45364;-58
2021/07/13 10:45:35;;;;;;;;;10.25;9.00;;;;;23.60;52.82;100637.09;5076944;28;45396;-58
2021/07/13 10:48:00;;;;;;;;;8.25;7.00;;;;;23.59;52.49;100636.22;5076535;27;46328;-59
2021/07/13 10:50:25;;;;;;;;;6.75;6.75;;;;;23.60;52.41;100637.91;5076561;28;45352;-58
2021/07/13 10:52:57;;;;;;;;;9.75;9.25;;;;;23.60;52.87;100631.78;5076578;28;45405;-58
2021/07/13 10:55:31;;;;;;;;;9.50;6.75;;;;;23.60;52.80;100637.09;5076840;27;45490;-59
2021/07/13 10:58:09;;;;;;;;;9.25;9.25;;;;;23.60;52.93;100624.69;5074945;28;46279;-58
2021/07/13 11:00:59;;;;;;;;;12.00;9.00;;;;;23.60;53.01;100631.78;5076657;28;45834;-58
2021/07/13 11:03:27;;;;;;;;;10.75;10.25;;;;;23.60;52.93;100626.50;5076525;27;45320;-51
2021/07/13 11:06:00;;;;;;;;;9.50;9.50;;;;;23.59;52.63;100624.81;5075314;28;45267;-49
2021/07/13 11:08:47;;;;;;;;;10.00;9.50;;;;;23.61;53.10;100628.19;5076422;28;46462;-48
2021/07/13 11:11:19;;;;;;;;;8.75;8.00;;;;;23.61;52.88;100625.56;5076138;27;45411;-49
2021/07/13 11:13:54;;;;;;;;;10.00;8.00;;;;;23.61;52.83;100625.56;5076229;27;45434;-48
2021/07/13 11:16:26;;;;;;;;;12.00;10.00;;;;;23.60;53.08;100631.78;5076442;27;45527;-47
2021/07/13 11:18:53;;;;;;;;;11.50;9.25;;;;;23.61;53.42;100636.13;5074732;27;46835;-47
2021/07/13 11:21:21;;;;;;;;;10.50;9.00;;;;;23.62;53.06;100637.81;5076104;27;45397;-48
2021/07/13 11:23:58;;;;;;;;;9.75;9.75;;;;;23.61;53.11;100639.63;5076219;27;45289;-48
2021/07/13 11:26:26;;;;;;;;;8.25;8.25;;;;;23.62;53.33;100651.88;5076517;27;45401;-49